Time;durP1;ratioP1;P1;durP2;ratioP2;P2;SDS_P1;SDS_P2;PMS_P1;PMS_P2;Temp;Humidity;BMP_temperature;BMP_pressure;BME280_temperature;BME280_humidity;BME280_pressure;Samples;Min_cycle;Max_cycle;Signal;HPM_P1;HPM_P2
2021/07/10 00:00:45;;;;;;;6.28;2.40;;;;;;;20.30;60.87;100818.31;5033029;28;20021;-80
2021/07/10 00:03:10;;;;;;;4.35;2.40;;;;;;;20.30;61.22;100810.31;5032716;28;20056;-80
2021/07/10 00:05:36;;;;;;;5.65;2.45;;;;;;;20.31;60.93;100808.47;5032565;28;20022;-80
2021/07/10 00:08:01;;;;;;;2.58;2.38;;;;;;;20.30;61.20;100807.63;5045585;28;20029;-80
2021/07/10 00:10:26;;;;;;;5.47;2.83;;;;;;;20.29;61.34;100810.44;5046786;28;20033;-80
2021/07/10 00:12:52;;;;;;;5.55;2.35;;;;;;;20.24;60.75;100802.94;5039768;28;20025;-80
2021/07/10 00:15:20;;;;;;;3.20;2.17;;;;;;;20.28;61.01;100808.75;5041156;28;20120;-81
2021/07/10 00:17:47;;;;;;;6.55;2.70;;;;;;;20.17;61.32;100797.38;5031696;28;20029;-81
2021/07/10 00:20:13;;;;;;;4.60;2.20;;;;;;;20.24;61.37;100796.75;5031898;28;20391;-80
2021/07/10 00:22:39;;;;;;;4.18;2.60;;;;;;;20.23;61.75;100803.91;5047135;28;20033;-80
2021/07/10 00:25:10;;;;;;;4.88;2.00;;;;;;;20.18;61.31;100796.41;5042586;28;20029;-81
2021/07/10 00:27:37;;;;;;;4.38;2.65;;;;;;;20.20;61.41;100790.88;5051580;28;20482;-81
2021/07/10 00:30:04;;;;;;;4.63;2.25;;;;;;;20.27;61.36;100789.28;5040661;28;20103;-81
2021/07/10 00:32:29;;;;;;;4.18;2.25;;;;;;;20.35;61.18;100785.81;5032454;28;20084;-81
2021/07/10 00:34:54;;;;;;;3.50;2.50;;;;;;;20.17;61.84;100780.56;5046873;28;20517;-81
2021/07/10 00:37:20;;;;;;;5.75;2.30;;;;;;;20.35;61.03;100775.16;5051616;28;20419;-81
2021/07/10 00:39:45;;;;;;;5.90;2.58;;;;;;;20.24;61.27;100772.75;5036990;28;20033;-81
2021/07/10 00:42:10;;;;;;;4.65;2.72;;;;;;;20.19;61.64;100778.56;5046413;28;20491;-80
2021/07/10 00:44:36;;;;;;;5.20;2.17;;;;;;;20.05;62.22;100771.97;5037102;28;20060;-80
2021/07/10 00:47:01;;;;;;;3.58;2.30;;;;;;;20.16;61.94;100765.53;5036851;28;20475;-81
2021/07/10 00:49:26;;;;;;;4.15;2.47;;;;;;;20.20;61.49;100761.56;5046616;28;20028;-80
2021/07/10 00:51:52;;;;;;;6.47;2.63;;;;;;;20.12;62.07;100754.38;5042246;28;20039;-81
2021/07/10 00:54:17;;;;;;;10.35;2.50;;;;;;;20.18;61.46;100756.41;5049779;28;20116;-81
2021/07/10 00:56:45;;;;;;;5.90;2.65;;;;;;;20.15;61.25;100748.72;5051312;28;20039;-80
2021/07/10 00:59:13;;;;;;;4.00;2.08;;;;;;;20.16;61.39;100750.41;5034092;28;20021;-80
2021/07/10 01:01:38;;;;;;;4.90;2.90;;;;;;;20.19;61.38;100750.06;5037350;28;20029;-82
2021/07/10 01:04:03;;;;;;;5.00;3.05;;;;;;;20.17;61.10;100744.06;5047804;28;20028;-81
2021/07/10 01:06:29;;;;;;;6.60;2.55;;;;;;;20.21;60.90;100749.91;5032043;28;20105;-81
2021/07/10 01:08:54;;;;;;;3.63;2.58;;;;;;;20.10;61.39;100745.72;5034365;28;20679;-80
2021/07/10 01:11:20;;;;;;;2.63;2.13;;;;;;;19.92;62.18;100740.41;5034429;28;20029;-80
2021/07/10 01:13:45;;;;;;;4.68;2.20;;;;;;;20.01;61.87;100736.81;5041229;28;20033;-80
2021/07/10 01:16:11;;;;;;;4.07;2.63;;;;;;;20.01;61.92;100734.16;5045635;28;20471;-80
2021/07/10 01:18:36;;;;;;;3.50;2.20;;;;;;;20.00;62.40;100727.16;5041983;28;20097;-80
2021/07/10 01:21:01;;;;;;;3.13;1.92;;;;;;;19.92;62.49;100728.91;5031126;28;20052;-80
2021/07/10 01:23:27;;;;;;;4.05;2.40;;;;;;;19.81;63.13;100722.88;5031056;28;20029;-81
2021/07/10 01:25:53;;;;;;;3.85;1.92;;;;;;;19.96;62.47;100719.63;5049604;28;20119;-81
2021/07/10 01:28:19;;;;;;;2.50;1.92;;;;;;;20.01;62.05;100725.31;5043281;28;20049;-81
2021/07/10 01:30:46;;;;;;;2.65;2.17;;;;;;;20.03;61.76;100727.84;5032231;28;20032;-80
2021/07/10 01:33:11;;;;;;;3.92;1.88;;;;;;;19.99;61.83;100720.13;5030943;28;20025;-80
2021/07/10 01:35:37;;;;;;;4.15;2.35;;;;;;;19.90;61.95;100712.25;5044876;28;20039;-81
2021/07/10 01:38:09;;;;;;;3.90;2.80;;;;;;;19.89;62.35;100713.25;5035883;28;20033;-80
2021/07/10 01:40:36;;;;;;;3.25;2.20;;;;;;;19.94;62.00;100713.59;5036531;28;20060;-81
2021/07/10 01:43:03;;;;;;;3.75;2.80;;;;;;;19.97;62.18;100710.63;5043755;28;20028;-81
2021/07/10 01:45:30;;;;;;;3.50;2.72;;;;;;;19.91;62.00;100703.28;5054189;28;20037;-81
2021/07/10 01:47:56;;;;;;;3.35;2.30;;;;;;;19.91;61.72;100697.94;5046505;28;20198;-80
2021/07/10 01:50:22;;;;;;;4.68;2.65;;;;;;;19.83;62.54;100700.53;5051397;28;20531;-81
2021/07/10 01:52:48;;;;;;;3.35;2.47;;;;;;;19.81;62.53;100698.06;5040444;28;20021;-81
2021/07/10 01:55:14;;;;;;;2.92;2.25;;;;;;;19.86;62.28;100697.56;5037510;28;20544;-80
2021/07/10 01:57:43;;;;;;;3.88;2.08;;;;;;;19.86;62.76;100687.75;5052642;28;20041;-80
2021/07/10 02:00:39;;;;;;;3.78;2.58;;;;;;;19.81;62.95;100688.22;5053588;28;20399;-80
2021/07/10 02:03:04;;;;;;;3.50;2.63;;;;;;;19.83;62.98;100690.75;5033959;28;20079;-80
2021/07/10 02:05:30;;;;;;;4.63;2.92;;;;;;;19.77;63.29;100683.38;5034312;28;20030;-80
2021/07/10 02:08:00;;;;;;;4.00;2.95;;;;;;;19.79;63.23;100676.91;5050662;28;20032;-80
2021/07/10 02:10:28;;;;;;;5.65;2.80;;;;;;;19.77;63.21;100673.56;5034985;28;20033;-80
2021/07/10 02:12:56;;;;;;;2.80;2.45;;;;;;;19.58;63.84;100674.56;5034043;28;20025;-80
2021/07/10 02:15:23;;;;;;;4.63;2.60;;;;;;;19.61;64.16;100674.25;5033743;28;20080;-80
2021/07/10 02:17:49;;;;;;;5.68;2.78;;;;;;;19.68;63.74;100662.97;5043317;28;20032;-80
2021/07/10 02:20:17;;;;;;;4.38;2.70;;;;;;;19.71;63.84;100665.34;5033992;28;20435;-80
2021/07/10 02:22:43;;;;;;;6.07;3.58;;;;;;;19.16;66.03;100658.44;5034790;28;20037;-80
2021/07/10 02:25:10;;;;;;;3.63;3.00;;;;;;;19.57;64.84;100658.75;5045936;28;20395;-80
2021/07/10 02:27:36;;;;;;;4.05;3.00;;;;;;;19.66;63.81;100651.63;5046007;28;20036;-80
2021/07/10 02:30:04;;;;;;;4.97;3.20;;;;;;;19.66;63.96;100648.97;5033699;28;20029;-80
2021/07/10 02:32:29;;;;;;;6.55;3.38;;;;;;;19.65;64.12;100653.47;5042622;28;20482;-80
2021/07/10 02:34:55;;;;;;;4.13;2.83;;;;;;;19.67;64.33;100653.28;5053166;28;20086;-80
2021/07/10 02:37:20;;;;;;;4.55;3.17;;;;;;;19.63;64.34;100639.47;5046177;28;20135;-80
2021/07/10 02:39:45;;;;;;;5.18;3.53;;;;;;;19.62;64.31;100643.13;5047870;28;20065;-80
2021/07/10 02:42:11;;;;;;;4.28;3.00;;;;;;;19.57;64.52;100646.28;5046728;28;20029;-80
2021/07/10 02:44:36;;;;;;;5.72;3.67;;;;;;;19.59;64.80;100643.44;5051648;28;20029;-80
2021/07/10 02:47:02;;;;;;;7.68;3.60;;;;;;;19.57;64.45;100642.78;5034037;28;20034;-80
2021/07/10 02:49:27;;;;;;;4.95;3.88;;;;;;;19.57;64.99;100640.13;5034232;28;20229;-81
2021/07/10 02:51:54;;;;;;;7.70;4.00;;;;;;;19.52;65.32;100642.41;5049018;28;20037;-80
2021/07/10 02:54:19;;;;;;;5.15;3.72;;;;;;;19.53;65.25;100633.41;5044775;28;20437;-80
2021/07/10 02:56:45;;;;;;;8.07;3.45;;;;;;;19.52;65.11;100631.75;5050612;28;20028;-80
2021/07/10 02:59:10;;;;;;;5.30;3.92;;;;;;;19.51;64.92;100630.91;5048314;28;20021;-80
2021/07/10 03:01:35;;;;;;;6.85;4.07;;;;;;;19.52;65.11;100626.41;5047032;28;20036;-80
2021/07/10 03:04:01;;;;;;;4.30;3.30;;;;;;;19.53;65.30;100622.75;5048487;28;20049;-80
2021/07/10 03:06:26;;;;;;;3.90;3.25;;;;;;;19.52;65.50;100621.91;5036661;28;20120;-80
2021/07/10 03:08:51;;;;;;;6.80;4.47;;;;;;;19.55;65.49;100620.75;5034310;28;20151;-80
2021/07/10 03:11:17;;;;;;;4.30;3.38;;;;;;;19.53;65.87;100617.41;5032706;28;20028;-80
2021/07/10 03:13:42;;;;;;;9.35;3.47;;;;;;;19.52;65.64;100618.44;5049877;28;20467;-80
2021/07/10 03:16:08;;;;;;;5.95;3.70;;;;;;;19.61;65.49;100612.16;5039695;28;20114;-80
2021/07/10 03:18:34;;;;;;;5.97;3.53;;;;;;;19.64;65.74;100614.50;5043674;28;20455;-80
2021/07/10 03:21:00;;;;;;;5.85;3.55;;;;;;;19.65;65.42;100610.84;5032793;28;20479;-80
2021/07/10 03:23:25;;;;;;;5.93;3.83;;;;;;;19.64;65.17;100614.50;5033497;28;20021;-80
2021/07/10 03:25:50;;;;;;;6.90;3.72;;;;;;;19.64;65.48;100609.16;5032966;28;20060;-80
2021/07/10 03:28:16;;;;;;;7.90;4.15;;;;;;;19.57;66.02;100610.81;5032452;28;20463;-80
2021/07/10 03:30:42;;;;;;;4.82;3.53;;;;;;;19.50;66.08;100607.09;5045479;28;20025;-80
2021/07/10 03:33:08;;;;;;;3.95;2.92;;;;;;;19.53;65.81;100612.09;5033680;28;20030;-80
2021/07/10 03:35:33;;;;;;;4.68;3.40;;;;;;;19.56;65.37;100617.13;5039503;28;20033;-80
2021/07/10 03:37:58;;;;;;;8.20;3.55;;;;;;;19.47;65.54;100612.72;5036349;28;20034;-80
2021/07/10 03:40:26;;;;;;;5.50;3.72;;;;;;;19.45;65.57;100609.38;5050373;28;20025;-80
2021/07/10 03:42:52;;;;;;;3.60;3.00;;;;;;;19.37;65.86;100618.16;5038208;28;20037;-80
2021/07/10 03:45:18;;;;;;;5.35;3.45;;;;;;;19.38;65.87;100610.03;5031889;28;20506;-80
2021/07/10 03:47:43;;;;;;;4.75;3.13;;;;;;;19.45;65.72;100609.38;5033183;28;20029;-81
2021/07/10 03:50:11;;;;;;;6.28;3.22;;;;;;;19.42;66.52;100611.38;5032287;28;20036;-80
2021/07/10 03:52:37;;;;;;;8.30;3.38;;;;;;;19.33;66.55;100607.00;5032962;28;20028;-80
2021/07/10 03:55:07;;;;;;;4.50;3.45;;;;;;;19.37;66.54;100612.84;5034610;28;20025;-80
2021/07/10 03:57:33;;;;;;;8.30;3.40;;;;;;;19.38;66.99;100610.03;5032176;28;20034;-80
2021/07/10 03:59:59;;;;;;;5.15;3.63;;;;;;;19.38;66.45;100610.03;5031885;28;20034;-80
2021/07/10 04:02:24;;;;;;;4.53;3.65;;;;;;;19.47;66.44;100612.72;5040359;28;20068;-80
2021/07/10 04:04:49;;;;;;;6.38;3.70;;;;;;;19.30;66.83;100609.13;5044292;28;20029;-80
2021/07/10 04:07:15;;;;;;;6.05;3.60;;;;;;;19.39;66.85;100617.03;5049163;28;20044;-80
2021/07/10 04:09:40;;;;;;;6.55;4.05;;;;;;;19.38;66.79;100612.69;5046615;28;20018;-80
2021/07/10 04:12:06;;;;;;;6.88;3.95;;;;;;;19.36;67.15;100617.31;5036111;28;20472;-80
2021/07/10 04:14:31;;;;;;;5.25;3.85;;;;;;;19.28;67.65;100609.28;5047829;28;20053;-80
2021/07/10 04:16:58;;;;;;;5.85;4.00;;;;;;;19.37;67.63;100615.50;5051106;28;20065;-80
2021/07/10 04:19:23;;;;;;;6.20;4.05;;;;;;;19.31;67.60;100619.66;5049712;28;20025;-80
2021/07/10 04:21:48;;;;;;;5.43;3.63;;;;;;;19.15;68.75;100617.66;5033837;28;20396;-80
2021/07/10 04:24:14;;;;;;;6.43;3.75;;;;;;;19.05;69.45;100614.28;5049798;28;20027;-80
2021/07/10 04:26:39;;;;;;;8.23;4.13;;;;;;;19.10;69.30;100627.13;5044422;28;20120;-80
2021/07/10 04:29:04;;;;;;;6.35;3.80;;;;;;;19.12;69.49;100622.50;5035323;28;20391;-80
2021/07/10 04:31:30;;;;;;;5.47;3.30;;;;;;;19.11;68.83;100620.81;5043169;28;20051;-80
2021/07/10 04:33:55;;;;;;;4.43;3.20;;;;;;;19.11;69.31;100618.97;5037528;28;20116;-80
2021/07/10 04:36:21;;;;;;;4.50;2.97;;;;;;;19.12;69.43;100617.16;5032033;28;20033;-80
2021/07/10 04:38:46;;;;;;;5.40;3.10;;;;;;;19.12;69.67;100614.50;5031271;28;20563;-80
2021/07/10 04:41:11;;;;;;;4.32;2.70;;;;;;;19.07;69.65;100609.63;5046790;28;20087;-80
2021/07/10 04:43:37;;;;;;;8.05;3.05;;;;;;;19.09;69.36;100614.81;5048311;28;20021;-80
2021/07/10 04:46:03;;;;;;;6.68;3.30;;;;;;;19.13;68.99;100613.50;5034524;28;20107;-80
2021/07/10 04:48:29;;;;;;;4.13;2.83;;;;;;;19.11;68.45;100613.66;5050616;28;20044;-80
2021/07/10 04:50:54;;;;;;;4.00;2.75;;;;;;;18.96;69.22;100620.53;5044548;28;20091;-80
2021/07/10 04:53:20;;;;;;;2.92;2.47;;;;;;;18.95;69.88;100614.34;5044690;28;20083;-80
2021/07/10 04:55:45;;;;;;;4.88;2.42;;;;;;;18.93;70.33;100620.81;5035938;28;20472;-82
2021/07/10 04:58:11;;;;;;;4.32;2.92;;;;;;;18.97;70.16;100615.03;5047258;28;20412;-80
2021/07/10 05:00:36;;;;;;;5.10;3.50;;;;;;;18.94;70.57;100622.50;5048119;28;20026;-80
2021/07/10 05:03:02;;;;;;;3.58;3.00;;;;;;;18.99;70.30;100615.72;5050059;28;20033;-80
2021/07/10 05:05:28;;;;;;;6.72;3.45;;;;;;;18.98;69.89;100608.75;5045808;28;20078;-80
2021/07/10 05:07:53;;;;;;;5.70;3.83;;;;;;;18.97;69.63;100615.03;5045843;28;20033;-80
2021/07/10 05:10:19;;;;;;;4.80;3.67;;;;;;;18.93;70.33;100621.66;5049412;28;20112;-80
2021/07/10 05:12:44;;;;;;;4.80;4.00;;;;;;;18.86;71.10;100620.63;5041660;28;20479;-80
2021/07/10 05:15:10;;;;;;;5.32;3.70;;;;;;;18.73;72.33;100620.13;5030961;28;20021;-80
2021/07/10 05:17:36;;;;;;;6.57;4.10;;;;;;;18.72;72.00;100621.09;5045597;28;20115;-80
2021/07/10 05:20:04;;;;;;;6.40;4.07;;;;;;;18.79;71.51;100617.72;5045596;28;20101;-80
2021/07/10 05:22:29;;;;;;;6.93;4.20;;;;;;;18.90;71.03;100621.97;5035655;28;20022;-80
2021/07/10 05:24:54;;;;;;;5.97;3.90;;;;;;;18.92;70.75;100620.00;5041915;28;20100;-80
2021/07/10 05:27:20;;;;;;;6.63;3.88;;;;;;;18.99;70.54;100626.34;5050052;28;20479;-80
2021/07/10 05:29:45;;;;;;;6.40;4.03;;;;;;;19.00;70.16;100617.41;5034901;28;20053;-80
2021/07/10 05:32:11;;;;;;;6.60;3.90;;;;;;;19.01;70.00;100618.22;5050874;28;20483;-80
2021/07/10 05:34:36;;;;;;;5.05;3.50;;;;;;;19.03;69.90;100621.56;5052965;28;20033;-80
2021/07/10 05:37:02;;;;;;;5.03;3.72;;;;;;;18.99;70.12;100618.38;5053667;28;20114;-80
2021/07/10 05:39:27;;;;;;;8.85;3.40;;;;;;;18.99;69.76;100610.41;5054541;28;20163;-80
2021/07/10 05:41:53;;;;;;;4.95;3.90;;;;;;;19.02;70.14;100615.41;5039669;28;20030;-80
2021/07/10 05:44:18;;;;;;;5.75;3.15;;;;;;;19.02;70.26;100615.41;5054377;28;20029;-80
2021/07/10 05:46:43;;;;;;;4.47;3.22;;;;;;;18.98;70.70;100613.22;5038192;28;20041;-80
2021/07/10 05:49:09;;;;;;;4.47;3.00;;;;;;;19.05;70.03;100610.78;5053273;28;20025;-81
2021/07/10 05:51:34;;;;;;;7.32;4.15;;;;;;;18.88;70.47;100623.09;5044781;28;20025;-80
2021/07/10 05:53:59;;;;;;;6.05;3.10;;;;;;;18.92;70.28;100608.53;5035854;28;20476;-80
2021/07/10 05:56:26;;;;;;;3.90;3.17;;;;;;;18.93;70.25;100618.16;5035376;28;20112;-81
2021/07/10 05:58:51;;;;;;;5.97;3.53;;;;;;;18.97;70.48;100617.69;5034354;28;20480;-81
2021/07/10 06:01:16;;;;;;;5.13;3.47;;;;;;;18.95;69.89;100617.00;5043894;28;20036;-81
2021/07/10 06:03:42;;;;;;;6.63;3.65;;;;;;;18.99;70.48;100612.22;5049503;28;20037;-80
2021/07/10 06:06:07;;;;;;;5.22;3.40;;;;;;;18.88;70.69;100610.66;5045066;28;20491;-81
2021/07/10 06:08:32;;;;;;;5.55;3.30;;;;;;;18.85;69.46;100610.94;5041625;28;20024;-80
2021/07/10 06:10:58;;;;;;;3.92;2.70;;;;;;;18.95;70.06;100609.03;5046235;28;20245;-81
2021/07/10 06:13:23;;;;;;;4.15;2.63;;;;;;;18.97;70.40;100595.59;5034989;28;20033;-80
2021/07/10 06:15:49;;;;;;;3.67;2.33;;;;;;;18.82;70.36;100613.94;5037945;28;20440;-81
2021/07/10 06:18:14;;;;;;;5.20;2.28;;;;;;;18.73;69.93;100610.31;5045546;28;20025;-81
2021/07/10 06:20:40;;;;;;;4.57;2.30;;;;;;;18.86;69.11;100596.66;5051115;28;20020;-81
2021/07/10 06:23:06;;;;;;;4.30;2.33;;;;;;;18.88;69.21;100593.84;5045714;28;20026;-81
2021/07/10 06:25:33;;;;;;;5.47;2.13;;;;;;;18.92;68.96;100592.56;5043801;28;20067;-81
2021/07/10 06:27:59;;;;;;;2.97;2.17;;;;;;;18.49;71.77;100600.28;5053702;28;20021;-81
2021/07/10 06:30:25;;;;;;;5.95;2.28;;;;;;;18.37;71.97;100602.31;5038012;28;20033;-80
2021/07/10 06:32:51;;;;;;;4.53;2.63;;;;;;;18.27;73.23;100592.75;5047837;28;20447;-80
2021/07/10 06:35:16;;;;;;;4.38;2.35;;;;;;;18.27;72.75;100592.75;5037342;28;20037;-81
2021/07/10 06:37:42;;;;;;;6.50;2.28;;;;;;;18.15;73.42;100594.78;5033286;28;20029;-80
2021/07/10 06:40:11;;;;;;;4.35;2.58;;;;;;;18.16;73.83;100597.28;5047725;28;20490;-80
2021/07/10 06:42:37;;;;;;;2.75;2.40;;;;;;;18.08;74.06;100597.19;5051926;28;20391;-81
2021/07/10 06:45:07;;;;;;;4.35;2.42;;;;;;;17.98;75.58;100601.72;5039759;28;20025;-81
2021/07/10 06:47:32;;;;;;;5.78;2.40;;;;;;;18.10;75.87;100595.22;5046466;28;20056;-81
2021/07/10 06:49:59;;;;;;;3.45;2.40;;;;;;;18.20;74.68;100597.81;5049955;28;20079;-81
2021/07/10 06:52:24;;;;;;;5.65;2.53;;;;;;;18.16;74.81;100591.94;5049050;28;20025;-81
2021/07/10 06:54:50;;;;;;;5.20;2.42;;;;;;;18.24;75.12;100597.34;5050418;28;20056;-81
2021/07/10 06:57:15;;;;;;;4.63;2.58;;;;;;;18.24;73.91;100589.38;5051536;28;20383;-81
2021/07/10 06:59:40;;;;;;;3.60;2.65;;;;;;;18.32;74.10;100591.28;5051372;28;20021;-81
2021/07/10 07:02:07;;;;;;;3.10;2.25;;;;;;;18.26;74.09;100583.91;5049690;28;20479;-81
2021/07/10 07:04:32;;;;;;;3.63;2.33;;;;;;;18.28;74.83;100583.78;5050859;28;20025;-81
2021/07/10 07:06:57;;;;;;;3.50;2.40;;;;;;;18.41;74.68;100589.56;5046956;28;20440;-81
2021/07/10 07:09:23;;;;;;;4.35;2.35;;;;;;;18.41;74.24;100595.72;5037564;28;20529;-80
2021/07/10 07:11:50;;;;;;;3.65;2.55;;;;;;;18.47;74.67;100591.63;5043875;28;20032;-81
2021/07/10 07:14:15;;;;;;;3.70;2.10;;;;;;;18.59;73.83;100589.56;5037781;28;20163;-80
2021/07/10 07:16:41;;;;;;;3.50;2.08;;;;;;;18.50;73.03;100586.00;5036084;28;20119;-80
2021/07/10 07:19:06;;;;;;;2.50;2.30;;;;;;;18.66;73.04;100587.13;5036542;28;20133;-83
2021/07/10 07:21:31;;;;;;;2.60;2.22;;;;;;;18.79;72.59;100576.94;5033314;28;20017;-80
2021/07/10 07:23:58;;;;;;;4.03;2.08;;;;;;;18.83;72.91;100583.66;5052001;28;20029;-81
2021/07/10 07:26:24;;;;;;;3.05;2.10;;;;;;;18.81;71.76;100586.47;5035048;28;20041;-80
2021/07/10 07:28:49;;;;;;;2.75;2.20;;;;;;;18.86;72.64;100585.19;5046002;28;20379;-80
2021/07/10 07:31:15;;;;;;;4.40;2.35;;;;;;;18.79;72.08;100593.78;5048344;28;20147;-80
2021/07/10 07:33:41;;;;;;;3.25;2.65;;;;;;;18.85;72.13;100587.00;5037294;28;20383;-80
2021/07/10 07:36:08;;;;;;;3.63;2.20;;;;;;;18.95;72.52;100587.75;5035738;28;20033;-80
2021/07/10 07:38:35;;;;;;;2.90;2.30;;;;;;;18.98;72.24;100590.13;5045183;28;20025;-80
2021/07/10 07:41:00;;;;;;;3.45;2.33;;;;;;;19.02;72.25;100582.66;5031859;28;20565;-80
2021/07/10 07:43:26;;;;;;;3.33;2.35;;;;;;;19.10;72.20;100581.88;5040313;28;20033;-80
2021/07/10 07:45:52;;;;;;;4.43;2.45;;;;;;;19.13;71.38;100578.91;5035969;28;20091;-81
2021/07/10 07:48:18;;;;;;;4.43;2.40;;;;;;;19.21;71.40;100577.16;5050894;28;20029;-80
2021/07/10 07:50:44;;;;;;;7.13;2.70;;;;;;;19.27;71.43;100580.16;5050034;28;20025;-80
2021/07/10 07:53:10;;;;;;;3.05;2.22;;;;;;;19.24;72.08;100586.63;5047212;28;20033;-81
2021/07/10 07:55:36;;;;;;;2.83;2.40;;;;;;;19.32;71.67;100578.69;5051492;28;20510;-81
2021/07/10 07:58:03;;;;;;;4.28;2.30;;;;;;;19.38;72.09;100580.72;5045408;28;20029;-81
2021/07/10 08:00:28;;;;;;;2.75;2.20;;;;;;;19.46;71.88;100579.13;5048360;28;20027;-81
2021/07/10 08:02:54;;;;;;;5.18;2.28;;;;;;;19.30;71.75;100580.69;5048571;28;20025;-81
2021/07/10 08:05:19;;;;;;;2.70;2.30;;;;;;;19.41;71.55;100585.75;5033137;28;20360;-81
2021/07/10 08:07:45;;;;;;;2.58;2.38;;;;;;;19.50;71.78;100585.78;5035248;28;20136;-81
2021/07/10 08:10:12;;;;;;;2.72;2.00;;;;;;;19.59;71.23;100579.53;5044402;28;20032;-81
2021/07/10 08:12:39;;;;;;;2.63;2.25;;;;;;;19.60;70.51;100586.50;5051706;28;20025;-80
2021/07/10 08:15:09;;;;;;;3.10;2.33;;;;;;;19.61;72.04;100582.88;5044380;28;20033;-82
2021/07/10 08:17:34;;;;;;;4.55;2.38;;;;;;;19.65;73.29;100578.91;5031547;28;20021;-82
2021/07/10 08:20:00;;;;;;;4.55;2.05;;;;;;;19.65;71.17;100576.22;5031669;28;20079;-81
2021/07/10 08:22:26;;;;;;;3.80;2.45;;;;;;;19.74;70.91;100583.28;5031569;28;20472;-82
2021/07/10 08:24:52;;;;;;;10.40;2.72;;;;;;;19.60;71.65;100575.84;5041918;28;20032;-82
2021/07/10 08:27:17;;;;;;;3.55;2.20;;;;;;;19.55;70.50;100576.34;5033996;28;20079;-81
2021/07/10 08:29:42;;;;;;;3.78;2.28;;;;;;;19.42;72.99;100578.59;5032573;28;20074;-81
2021/07/10 08:32:11;;;;;;;5.32;2.00;;;;;;;19.64;72.23;100576.38;5035092;28;20021;-82
2021/07/10 08:34:37;;;;;;;2.15;1.40;;;;;;;19.47;71.91;100586.09;5043876;28;20105;-82
2021/07/10 08:37:03;;;;;;;2.92;1.90;;;;;;;19.54;72.13;100576.50;5041978;28;20120;-82
2021/07/10 08:39:29;;;;;;;4.82;1.45;;;;;;;19.59;72.08;100574.19;5035963;28;20549;-84
2021/07/10 08:41:55;;;;;;;2.60;1.45;;;;;;;19.64;72.14;100571.06;5037047;28;20060;-82
2021/07/10 08:44:20;;;;;;;3.22;1.60;;;;;;;19.62;73.03;100579.19;5040159;28;20049;-88
2021/07/10 08:46:46;;;;;;;1.90;1.20;;;;;;;19.79;71.04;100569.50;5034455;28;20026;-82
2021/07/10 08:49:14;;;;;;;1.70;1.60;;;;;;;19.92;70.10;100571.69;5038308;28;20108;-82
2021/07/10 08:51:43;;;;;;;2.58;1.40;;;;;;;19.86;71.58;100570.50;5031943;28;20034;-81
2021/07/10 08:54:09;;;;;;;2.03;1.52;;;;;;;19.92;69.82;100569.03;5044383;28;20032;-81
2021/07/10 08:56:34;;;;;;;4.13;1.92;;;;;;;19.92;71.90;100567.19;5037887;28;20033;-81
2021/07/10 08:59:00;;;;;;;2.92;1.70;;;;;;;19.81;72.15;100559.50;5041632;28;20029;-82
2021/07/10 09:01:26;;;;;;;2.25;1.77;;;;;;;19.84;72.03;100566.34;5040016;28;20075;-81
2021/07/10 09:03:51;;;;;;;1.95;1.63;;;;;;;19.76;72.48;100557.31;5040802;28;20025;-82
2021/07/10 09:06:17;;;;;;;2.88;1.75;;;;;;;19.88;71.99;100557.03;5039505;28;20585;-81
2021/07/10 09:08:43;;;;;;;1.95;1.45;;;;;;;19.89;71.03;100558.72;5047811;28;20390;-81
2021/07/10 09:11:14;;;;;;;2.08;1.20;;;;;;;19.83;71.87;100565.50;5046230;28;20151;-81
2021/07/10 09:13:48;;;;;;;3.03;1.60;;;;;;;19.86;70.52;100554.50;5047131;28;20028;-81
2021/07/10 09:16:16;;;;;;;1.60;1.30;;;;;;;19.87;71.01;100560.69;5051270;28;20025;-81
2021/07/10 09:18:48;;;;;;;1.63;1.23;;;;;;;19.89;71.08;100558.72;5042963;28;20051;-81
2021/07/10 09:21:50;;;;;;;1.65;1.02;;;;;;;19.73;70.64;100556.81;5051261;28;20028;-82
2021/07/10 09:24:32;;;;;;;1.55;1.00;;;;;;;19.73;71.57;100549.66;5038345;28;20077;-81
2021/07/10 09:27:04;;;;;;;1.90;1.10;;;;;;;19.71;71.55;100554.31;5037266;28;20032;-81
2021/07/10 09:29:35;;;;;;;1.77;1.20;;;;;;;19.76;72.23;100557.31;5053226;28;20040;-81
2021/07/10 09:32:06;;;;;;;2.00;1.02;;;;;;;20.00;70.91;100553.06;5051123;28;20056;-82
2021/07/10 09:34:40;;;;;;;107.97;13.57;;;;;;;19.99;70.59;100554.06;5045292;28;20505;-81
2021/07/10 09:37:29;;;;;;;11.13;1.60;;;;;;;20.04;71.48;100551.75;5043722;28;20073;-84
2021/07/10 09:40:09;;;;;;;1.67;1.00;;;;;;;20.05;70.66;100553.41;5044833;28;20403;-84
2021/07/10 09:42:36;;;;;;;2.03;0.98;;;;;;;19.95;70.59;100560.72;5046993;28;20017;-85
2021/07/10 09:45:04;;;;;;;1.23;0.98;;;;;;;19.91;68.78;100560.22;5048092;28;20056;-83
2021/07/10 09:47:32;;;;;;;1.13;0.90;;;;;;;19.84;70.67;100555.69;5045580;28;20047;-83
2021/07/10 09:49:58;;;;;;;1.20;0.80;;;;;;;19.93;70.92;100554.72;5044680;28;20087;-86
2021/07/10 09:52:28;;;;;;;1.00;0.90;;;;;;;20.01;70.86;100546.75;5041505;28;20048;-84
2021/07/10 09:55:00;;;;;;;1.38;0.93;;;;;;;20.01;70.19;100552.91;5035702;28;20116;-84
2021/07/10 09:57:28;;;;;;;0.85;0.80;;;;;;;20.18;70.16;100553.78;5051485;28;20033;-84
2021/07/10 09:59:56;;;;;;;1.95;0.90;;;;;;;20.19;69.95;100547.44;5048930;28;20462;-83
2021/07/10 10:02:24;;;;;;;1.52;0.80;;;;;;;20.30;70.18;100556.97;5041388;28;20048;-84
2021/07/10 10:04:51;;;;;;;0.98;0.60;;;;;;;20.31;69.79;100555.97;5039140;28;20391;-84
2021/07/10 10:07:19;;;;;;;1.52;0.80;;;;;;;20.35;70.15;100556.47;5045594;28;20422;-84
2021/07/10 10:09:52;;;;;;;0.55;0.47;;;;;;;20.41;68.24;100555.81;5047524;28;20033;-84
2021/07/10 10:12:17;;;;;;;1.38;0.80;;;;;;;20.39;67.82;100552.50;5040677;28;20531;-85
2021/07/10 10:14:49;;;;;;;1.17;0.60;;;;;;;20.47;68.68;100554.34;5041873;28;20017;-84
2021/07/10 10:17:16;;;;;;;;;;;;;;;20.41;68.52;100553.97;5041901;28;20032;-85
2021/07/10 10:19:42;;;;;;;6.53;0.70;;;;;;;20.40;68.52;100554.16;5046294;28;19927;-85
2021/07/10 10:22:11;;;;;;;0.70;0.68;;;;;;;20.43;68.10;100551.16;5037714;28;20033;-83
2021/07/10 10:24:39;;;;;;;7.43;0.80;;;;;;;20.37;69.18;100546.47;5040818;28;20056;-84
2021/07/10 10:27:06;;;;;;;1.25;1.08;;;;;;;20.46;68.85;100547.31;5043720;28;20575;-83
2021/07/10 10:29:33;;;;;;;9.10;2.00;;;;;;;20.46;69.64;100553.50;5039400;28;20036;-83
2021/07/10 10:31:58;;;;;;;12.40;1.73;;;;;;;20.46;69.67;100545.50;5046705;28;20020;-83
2021/07/10 10:34:26;;;;;;;20.83;2.63;;;;;;;20.40;69.94;100556.84;5045878;28;20443;-84
2021/07/10 10:36:52;;;;;;;4.55;1.10;;;;;;;20.38;70.33;100553.50;5040098;28;20053;-84
2021/07/10 10:39:20;;;;;;;1.30;0.98;;;;;;;20.47;69.91;100552.50;5043964;28;20561;-84
2021/07/10 10:41:49;;;;;;;1.55;1.25;;;;;;;20.41;70.37;100551.31;5040041;28;20064;-83
2021/07/10 10:44:16;;;;;;;1.35;0.90;;;;;;;20.58;68.75;100544.16;5048032;28;20357;-83
2021/07/10 10:46:52;;;;;;;3.25;0.73;;;;;;;20.71;68.76;100549.03;4994539;28;1145756;-89
2021/07/10 10:49:41;;;;;;;2.05;1.08;;;;;;;20.80;67.72;100547.22;5058206;28;20028;-86
2021/07/10 10:52:43;;;;;;;2.58;0.75;;;;;;;20.82;68.84;100545.22;5040134;28;20217;-82
2021/07/10 10:55:15;;;;;;;3.92;0.90;;;;;;;20.83;68.10;100538.84;5026881;28;20061;-82
2021/07/10 10:57:55;;;;;;;8.30;1.70;;;;;;;20.91;67.70;100543.34;5035806;28;20557;-82
2021/07/10 11:00:24;;;;;;;5.60;1.38;;;;;;;20.99;67.59;100541.53;5040544;28;20029;-82
2021/07/10 11:02:49;;;;;;;2.03;0.98;;;;;;;20.96;67.55;100547.19;5036990;28;20510;-82
2021/07/10 11:05:16;;;;;;;1.20;0.82;;;;;;;21.08;68.17;100541.50;5037132;28;20125;-82
2021/07/10 11:07:41;;;;;;;2.20;0.75;;;;;;;21.09;67.92;100551.16;5032960;28;20032;-82
2021/07/10 11:10:14;;;;;;;1.17;0.70;;;;;;;21.14;66.77;100549.66;5033058;28;20033;-82
2021/07/10 11:12:48;;;;;;;0.80;0.80;;;;;;;21.27;67.13;100554.50;5032613;28;20030;-82
2021/07/10 11:15:28;;;;;;;0.77;0.70;;;;;;;21.22;65.04;100546.13;5036332;28;20067;-82
2021/07/10 11:17:55;;;;;;;0.80;0.80;;;;;;;21.26;65.65;100544.78;5051315;28;20029;-82
2021/07/10 11:20:47;;;;;;;1.27;0.90;;;;;;;21.35;65.89;100541.09;5053092;28;20039;-82
2021/07/10 11:23:26;;;;;;;2.83;1.13;;;;;;;21.46;65.87;100541.78;5052723;28;20025;-82